Terminal Aerodrome Forecast
Issued by NWS

Home | Current Version | Previous Version | Text Only | Print | Product List | Glossary On
Versions: 1 2 3 4 5 6 7 8 9 10 11 12 13 14 15 16 17 18 19
000
FTUS44 KCRP 210500
TAFLRD
TAF
KLRD 210533Z 2106/2206 06005KT P6SM SCT040 BKN100
     FM211000 05005KT 6SM BR BKN012
      TEMPO 2111/2115 5SM BR BKN009
     FM211500 09011KT P6SM SCT025
     FM211700 10010KT P6SM SCT050 BKN100=

USA.gov is the U.S. government's official web portal to all federal, state and local government web resources and services.